
<gpx xmlns="http://www.topografix.com/GPX/1/1" xmlns:gpxx="http://www.garmin.com/xmlschemas/GpxExtensions/v3" xmlns:xsi="http://www.w3.org/2001/XMLSchema-instance" version="1.1" creator="Adze - https://getadze.com/" xsi:schemaLocation="http://www.topografix.com/GPX/1/1 http://www.topografix.com/GPX/1/1/gpx.xsd http://www.garmin.com/xmlschemas/GpxExtensions/v3 http://www.garmin.com/xmlschemas/GpxExtensionsv3.xsd">
    <metadata>
        <name>Untitled Document</name>
        <link href="http://www.garmin.com"></link>
        <time>2018-03-08T10:59:23.712Z</time>
    </metadata>
    <wpt lon="101.424203" lat="13.023735">
        <ele>82.000000</ele>
        <name>Wang Chan Resort</name>
        <cmt>24-SEP-11 12:03:42</cmt>
        <desc>24-SEP-11 12:03:42</desc>
        <sym>Lodging</sym>
        <extensions>
            <gpxx:WaypointExtension xmlns:gpxx="http://www.garmin.com/xmlschemas/GpxExtensions/v3">
                <gpxx:DisplayMode>SymbolOnly</gpxx:DisplayMode>
            </gpxx:WaypointExtension>
        </extensions>
    </wpt>
    <trk>
        <name>September 2011 - Sunday</name>
        <extensions>
            <gpxx:TrackExtension xmlns:gpxx="http://www.garmin.com/xmlschemas/GpxExtensions/v3">
                <gpxx:DisplayColor>Green</gpxx:DisplayColor>
            </gpxx:TrackExtension>
        </extensions>
        <trkseg>
            <trkpt lon="101.424316" lat="13.023336">
                <ele>97.711182</ele>
                <time>2011-09-25T03:00:24Z</time>
            </trkpt>
            <trkpt lon="101.424789" lat="13.024654">
                <ele>85.213989</ele>
                <time>2011-09-25T03:01:24Z</time>
            </trkpt>
            <trkpt lon="101.425301" lat="13.026383">
                <ele>81.368774</ele>
                <time>2011-09-25T03:01:54Z</time>
            </trkpt>
            <trkpt lon="101.427831" lat="13.026613">
                <ele>76.081421</ele>
                <time>2011-09-25T03:02:24Z</time>
            </trkpt>
            <trkpt lon="101.429296" lat="13.025606">
                <ele>71.755493</ele>
                <time>2011-09-25T03:02:54Z</time>
            </trkpt>
            <trkpt lon="101.430616" lat="13.022936">
                <ele>66.468262</ele>
                <time>2011-09-25T03:03:54Z</time>
            </trkpt>
            <trkpt lon="101.432092" lat="13.021583">
                <ele>62.622925</ele>
                <time>2011-09-25T03:04:24Z</time>
            </trkpt>
            <trkpt lon="101.433680" lat="13.020323">
                <ele>62.622925</ele>
                <time>2011-09-25T03:04:54Z</time>
            </trkpt>
            <trkpt lon="101.432346" lat="13.020279">
                <ele>64.065063</ele>
                <time>2011-09-25T03:05:24Z</time>
            </trkpt>
            <trkpt lon="101.431830" lat="13.018636">
                <ele>66.468262</ele>
                <time>2011-09-25T03:05:54Z</time>
            </trkpt>
            <trkpt lon="101.430827" lat="13.017885">
                <ele>66.468262</ele>
                <time>2011-09-25T03:06:24Z</time>
            </trkpt>
            <trkpt lon="101.429419" lat="13.017610">
                <ele>68.871582</ele>
                <time>2011-09-25T03:06:54Z</time>
            </trkpt>
            <trkpt lon="101.428084" lat="13.014694">
                <ele>71.274902</ele>
                <time>2011-09-25T03:08:24Z</time>
            </trkpt>
            <trkpt lon="101.428785" lat="13.012759">
                <ele>65.987671</ele>
                <time>2011-09-25T03:08:54Z</time>
            </trkpt>
            <trkpt lon="101.427480" lat="13.011484">
                <ele>62.622925</ele>
                <time>2011-09-25T03:09:24Z</time>
            </trkpt>
            <trkpt lon="101.426449" lat="13.010918">
                <ele>64.065063</ele>
                <time>2011-09-25T03:09:54Z</time>
            </trkpt>
            <trkpt lon="101.425916" lat="13.010726">
                <ele>68.390869</ele>
                <time>2011-09-25T03:10:24Z</time>
            </trkpt>
            <trkpt lon="101.426514" lat="13.010939">
                <ele>65.507080</ele>
                <time>2011-09-25T03:10:54Z</time>
            </trkpt>
            <trkpt lon="101.427133" lat="13.011264">
                <ele>62.622925</ele>
                <time>2011-09-25T03:11:24Z</time>
            </trkpt>
            <trkpt lon="101.427233" lat="13.011314">
                <ele>66.468262</ele>
                <time>2011-09-25T03:11:54Z</time>
            </trkpt>
            <trkpt lon="101.427443" lat="13.010857">
                <ele>60.700317</ele>
                <time>2011-09-25T03:12:24Z</time>
            </trkpt>
            <trkpt lon="101.427651" lat="13.010050">
                <ele>61.181030</ele>
                <time>2011-09-25T03:12:54Z</time>
            </trkpt>
            <trkpt lon="101.427953" lat="13.009164">
                <ele>62.142334</ele>
                <time>2011-09-25T03:13:24Z</time>
            </trkpt>
            <trkpt lon="101.428510" lat="13.008337">
                <ele>62.142334</ele>
                <time>2011-09-25T03:13:54Z</time>
            </trkpt>
            <trkpt lon="101.427797" lat="13.007531">
                <ele>64.545654</ele>
                <time>2011-09-25T03:14:24Z</time>
            </trkpt>
            <trkpt lon="101.427885" lat="13.006644">
                <ele>65.026367</ele>
                <time>2011-09-25T03:14:54Z</time>
            </trkpt>
            <trkpt lon="101.428250" lat="13.005230">
                <ele>63.103638</ele>
                <time>2011-09-25T03:15:54Z</time>
            </trkpt>
            <trkpt lon="101.428234" lat="13.004902">
                <ele>64.545654</ele>
                <time>2011-09-25T03:16:24Z</time>
            </trkpt>
            <trkpt lon="101.429163" lat="13.004931">
                <ele>70.313477</ele>
                <time>2011-09-25T03:18:24Z</time>
            </trkpt>
            <trkpt lon="101.429541" lat="13.004779">
                <ele>70.794190</ele>
                <time>2011-09-25T03:18:54Z</time>
            </trkpt>
            <trkpt lon="101.429958" lat="13.004482">
                <ele>70.313477</ele>
                <time>2011-09-25T03:19:24Z</time>
            </trkpt>
            <trkpt lon="101.430135" lat="13.004036">
                <ele>72.716919</ele>
                <time>2011-09-25T03:19:54Z</time>
            </trkpt>
            <trkpt lon="101.430068" lat="13.003970">
                <ele>82.330078</ele>
                <time>2011-09-25T03:20:24Z</time>
            </trkpt>
            <trkpt lon="101.429952" lat="13.003901">
                <ele>80.888184</ele>
                <time>2011-09-25T03:20:54Z</time>
            </trkpt>
            <trkpt lon="101.429515" lat="13.003303">
                <ele>92.904541</ele>
                <time>2011-09-25T03:21:54Z</time>
            </trkpt>
            <trkpt lon="101.429400" lat="13.002968">
                <ele>91.462524</ele>
                <time>2011-09-25T03:22:24Z</time>
            </trkpt>
            <trkpt lon="101.429170" lat="13.002192">
                <ele>92.904541</ele>
                <time>2011-09-25T03:22:54Z</time>
            </trkpt>
            <trkpt lon="101.429071" lat="13.001363">
                <ele>94.346558</ele>
                <time>2011-09-25T03:23:24Z</time>
            </trkpt>
            <trkpt lon="101.429400" lat="13.000783">
                <ele>96.749878</ele>
                <time>2011-09-25T03:23:54Z</time>
            </trkpt>
            <trkpt lon="101.429758" lat="13.000405">
                <ele>103.479004</ele>
                <time>2011-09-25T03:24:24Z</time>
            </trkpt>
            <trkpt lon="101.429805" lat="12.999995">
                <ele>112.130981</ele>
                <time>2011-09-25T03:24:54Z</time>
            </trkpt>
            <trkpt lon="101.429559" lat="12.999634">
                <ele>120.302124</ele>
                <time>2011-09-25T03:25:24Z</time>
            </trkpt>
            <trkpt lon="101.429218" lat="12.999314">
                <ele>122.705444</ele>
                <time>2011-09-25T03:25:54Z</time>
            </trkpt>
            <trkpt lon="101.428913" lat="12.999168">
                <ele>124.628052</ele>
                <time>2011-09-25T03:26:24Z</time>
            </trkpt>
            <trkpt lon="101.429473" lat="12.999485">
                <ele>127.031372</ele>
                <time>2011-09-25T03:26:54Z</time>
            </trkpt>
            <trkpt lon="101.429571" lat="12.999636">
                <ele>125.589355</ele>
                <time>2011-09-25T03:27:24Z</time>
            </trkpt>
            <trkpt lon="101.428504" lat="12.998999">
                <ele>124.628052</ele>
                <time>2011-09-25T03:28:24Z</time>
            </trkpt>
            <trkpt lon="101.428084" lat="12.998744">
                <ele>127.511963</ele>
                <time>2011-09-25T03:28:54Z</time>
            </trkpt>
            <trkpt lon="101.427705" lat="12.998406">
                <ele>133.279907</ele>
                <time>2011-09-25T03:29:24Z</time>
            </trkpt>
            <trkpt lon="101.427475" lat="12.998193">
                <ele>133.279907</ele>
                <time>2011-09-25T03:29:54Z</time>
            </trkpt>
            <trkpt lon="101.427604" lat="12.998315">
                <ele>133.279907</ele>
                <time>2011-09-25T03:30:24Z</time>
            </trkpt>
            <trkpt lon="101.427692" lat="12.998420">
                <ele>131.357300</ele>
                <time>2011-09-25T03:30:54Z</time>
            </trkpt>
            <trkpt lon="101.428421" lat="12.998983">
                <ele>125.589355</ele>
                <time>2011-09-25T03:31:24Z</time>
            </trkpt>
            <trkpt lon="101.429130" lat="12.999252">
                <ele>127.031372</ele>
                <time>2011-09-25T03:31:54Z</time>
            </trkpt>
            <trkpt lon="101.429010" lat="12.999206">
                <ele>130.395996</ele>
                <time>2011-09-25T03:32:24Z</time>
            </trkpt>
            <trkpt lon="101.428984" lat="12.999183">
                <ele>127.031372</ele>
                <time>2011-09-25T03:32:54Z</time>
            </trkpt>
            <trkpt lon="101.428980" lat="12.999180">
                <ele>130.876709</ele>
                <time>2011-09-25T03:33:24Z</time>
            </trkpt>
            <trkpt lon="101.429410" lat="12.999499">
                <ele>127.992554</ele>
                <time>2011-09-25T03:33:54Z</time>
            </trkpt>
            <trkpt lon="101.429660" lat="12.999788">
                <ele>121.744141</ele>
                <time>2011-09-25T03:34:24Z</time>
            </trkpt>
            <trkpt lon="101.429792" lat="13.000034">
                <ele>116.937500</ele>
                <time>2011-09-25T03:34:54Z</time>
            </trkpt>
            <trkpt lon="101.430468" lat="12.999796">
                <ele>108.285645</ele>
                <time>2011-09-25T03:35:24Z</time>
            </trkpt>
            <trkpt lon="101.430610" lat="12.999594">
                <ele>106.363037</ele>
                <time>2011-09-25T03:35:54Z</time>
            </trkpt>
            <trkpt lon="101.430889" lat="12.999287">
                <ele>114.053589</ele>
                <time>2011-09-25T03:36:24Z</time>
            </trkpt>
            <trkpt lon="101.431201" lat="12.999062">
                <ele>120.302124</ele>
                <time>2011-09-25T03:36:54Z</time>
            </trkpt>
            <trkpt lon="101.431299" lat="12.999012">
                <ele>124.628052</ele>
                <time>2011-09-25T03:37:24Z</time>
            </trkpt>
            <trkpt lon="101.431428" lat="12.999025">
                <ele>121.744141</ele>
                <time>2011-09-25T03:37:54Z</time>
            </trkpt>
            <trkpt lon="101.431622" lat="12.999069">
                <ele>118.860107</ele>
                <time>2011-09-25T03:38:24Z</time>
            </trkpt>
            <trkpt lon="101.431964" lat="12.999094">
                <ele>117.418213</ele>
                <time>2011-09-25T03:38:54Z</time>
            </trkpt>
            <trkpt lon="101.431969" lat="12.999096">
                <ele>115.976196</ele>
                <time>2011-09-25T03:39:24Z</time>
            </trkpt>
            <trkpt lon="101.432165" lat="12.999036">
                <ele>113.092285</ele>
                <time>2011-09-25T03:39:54Z</time>
            </trkpt>
            <trkpt lon="101.432266" lat="12.998982">
                <ele>111.650269</ele>
                <time>2011-09-25T03:40:24Z</time>
            </trkpt>
            <trkpt lon="101.432317" lat="12.999016">
                <ele>109.246948</ele>
                <time>2011-09-25T03:40:54Z</time>
            </trkpt>
            <trkpt lon="101.432332" lat="12.999076">
                <ele>111.169556</ele>
                <time>2011-09-25T03:41:24Z</time>
            </trkpt>
            <trkpt lon="101.432413" lat="12.999235">
                <ele>109.246948</ele>
                <time>2011-09-25T03:41:54Z</time>
            </trkpt>
            <trkpt lon="101.432535" lat="12.999459">
                <ele>100.595093</ele>
                <time>2011-09-25T03:42:24Z</time>
            </trkpt>
            <trkpt lon="101.433131" lat="12.999405">
                <ele>96.269287</ele>
                <time>2011-09-25T03:42:54Z</time>
            </trkpt>
            <trkpt lon="101.433917" lat="12.999277">
                <ele>91.943237</ele>
                <time>2011-09-25T03:43:24Z</time>
            </trkpt>
            <trkpt lon="101.435035" lat="12.998845">
                <ele>87.136597</ele>
                <time>2011-09-25T03:43:54Z</time>
            </trkpt>
            <trkpt lon="101.435996" lat="12.998308">
                <ele>87.136597</ele>
                <time>2011-09-25T03:44:24Z</time>
            </trkpt>
            <trkpt lon="101.435577" lat="12.997685">
                <ele>90.020630</ele>
                <time>2011-09-25T03:44:54Z</time>
            </trkpt>
            <trkpt lon="101.435528" lat="12.997203">
                <ele>94.346558</ele>
                <time>2011-09-25T03:45:24Z</time>
            </trkpt>
            <trkpt lon="101.436629" lat="12.996485">
                <ele>87.617188</ele>
                <time>2011-09-25T03:45:54Z</time>
            </trkpt>
            <trkpt lon="101.436790" lat="12.996004">
                <ele>86.175293</ele>
                <time>2011-09-25T03:46:24Z</time>
            </trkpt>
            <trkpt lon="101.436712" lat="12.995731">
                <ele>88.098022</ele>
                <time>2011-09-25T03:46:54Z</time>
            </trkpt>
            <trkpt lon="101.436574" lat="12.995292">
                <ele>89.059326</ele>
                <time>2011-09-25T03:47:24Z</time>
            </trkpt>
            <trkpt lon="101.436491" lat="12.994960">
                <ele>91.462524</ele>
                <time>2011-09-25T03:47:54Z</time>
            </trkpt>
            <trkpt lon="101.436502" lat="12.994957">
                <ele>91.462524</ele>
                <time>2011-09-25T03:48:24Z</time>
            </trkpt>
            <trkpt lon="101.436421" lat="12.994891">
                <ele>91.462524</ele>
                <time>2011-09-25T03:48:54Z</time>
            </trkpt>
            <trkpt lon="101.436382" lat="12.994865">
                <ele>92.904541</ele>
                <time>2011-09-25T03:49:24Z</time>
            </trkpt>
            <trkpt lon="101.436395" lat="12.994887">
                <ele>93.385132</ele>
                <time>2011-09-25T03:49:54Z</time>
            </trkpt>
            <trkpt lon="101.436394" lat="12.994900">
                <ele>95.788452</ele>
                <time>2011-09-25T03:50:24Z</time>
            </trkpt>
            <trkpt lon="101.436392" lat="12.994898">
                <ele>97.711182</ele>
                <time>2011-09-25T03:50:54Z</time>
            </trkpt>
            <trkpt lon="101.436395" lat="12.994895">
                <ele>97.230469</ele>
                <time>2011-09-25T03:51:24Z</time>
            </trkpt>
            <trkpt lon="101.436397" lat="12.994896">
                <ele>94.346558</ele>
                <time>2011-09-25T03:51:54Z</time>
            </trkpt>
            <trkpt lon="101.436393" lat="12.994896">
                <ele>94.346558</ele>
                <time>2011-09-25T03:52:24Z</time>
            </trkpt>
            <trkpt lon="101.436390" lat="12.994894">
                <ele>96.269287</ele>
                <time>2011-09-25T03:52:54Z</time>
            </trkpt>
            <trkpt lon="101.436390" lat="12.994892">
                <ele>98.191895</ele>
                <time>2011-09-25T03:53:24Z</time>
            </trkpt>
            <trkpt lon="101.436390" lat="12.994890">
                <ele>98.672485</ele>
                <time>2011-09-25T03:53:54Z</time>
            </trkpt>
            <trkpt lon="101.436390" lat="12.994888">
                <ele>98.191895</ele>
                <time>2011-09-25T03:54:24Z</time>
            </trkpt>
            <trkpt lon="101.436389" lat="12.994887">
                <ele>95.788452</ele>
                <time>2011-09-25T03:54:54Z</time>
            </trkpt>
            <trkpt lon="101.436388" lat="12.994887">
                <ele>94.346558</ele>
                <time>2011-09-25T03:55:24Z</time>
            </trkpt>
            <trkpt lon="101.436387" lat="12.994887">
                <ele>93.385132</ele>
                <time>2011-09-25T03:55:54Z</time>
            </trkpt>
            <trkpt lon="101.436386" lat="12.994887">
                <ele>91.943237</ele>
                <time>2011-09-25T03:56:24Z</time>
            </trkpt>
            <trkpt lon="101.436386" lat="12.994887">
                <ele>93.385132</ele>
                <time>2011-09-25T03:56:54Z</time>
            </trkpt>
            <trkpt lon="101.436387" lat="12.994887">
                <ele>90.981934</ele>
                <time>2011-09-25T03:57:24Z</time>
            </trkpt>
            <trkpt lon="101.436388" lat="12.994887">
                <ele>90.501343</ele>
                <time>2011-09-25T03:57:54Z</time>
            </trkpt>
            <trkpt lon="101.436387" lat="12.994887">
                <ele>93.385132</ele>
                <time>2011-09-25T03:58:24Z</time>
            </trkpt>
            <trkpt lon="101.436387" lat="12.994886">
                <ele>92.904541</ele>
                <time>2011-09-25T03:58:54Z</time>
            </trkpt>
            <trkpt lon="101.436387" lat="12.994886">
                <ele>92.904541</ele>
                <time>2011-09-25T03:59:24Z</time>
            </trkpt>
            <trkpt lon="101.436386" lat="12.994887">
                <ele>93.385132</ele>
                <time>2011-09-25T03:59:54Z</time>
            </trkpt>
            <trkpt lon="101.436385" lat="12.994887">
                <ele>91.462524</ele>
                <time>2011-09-25T04:00:24Z</time>
            </trkpt>
            <trkpt lon="101.436366" lat="12.994893">
                <ele>91.943237</ele>
                <time>2011-09-25T04:00:54Z</time>
            </trkpt>
            <trkpt lon="101.436381" lat="12.994873">
                <ele>95.307739</ele>
                <time>2011-09-25T04:01:24Z</time>
            </trkpt>
            <trkpt lon="101.436383" lat="12.994880">
                <ele>96.749878</ele>
                <time>2011-09-25T04:01:54Z</time>
            </trkpt>
            <trkpt lon="101.436390" lat="12.994883">
                <ele>97.230469</ele>
                <time>2011-09-25T04:02:24Z</time>
            </trkpt>
            <trkpt lon="101.436391" lat="12.994887">
                <ele>92.423950</ele>
                <time>2011-09-25T04:02:54Z</time>
            </trkpt>
            <trkpt lon="101.436391" lat="12.994892">
                <ele>91.462524</ele>
                <time>2011-09-25T04:03:24Z</time>
            </trkpt>
            <trkpt lon="101.436390" lat="12.994896">
                <ele>90.981934</ele>
                <time>2011-09-25T04:03:54Z</time>
            </trkpt>
            <trkpt lon="101.436382" lat="12.994902">
                <ele>91.943237</ele>
                <time>2011-09-25T04:04:24Z</time>
            </trkpt>
            <trkpt lon="101.436486" lat="12.994902">
                <ele>90.020630</ele>
                <time>2011-09-25T04:04:54Z</time>
            </trkpt>
            <trkpt lon="101.436494" lat="12.994470">
                <ele>90.501343</ele>
                <time>2011-09-25T04:05:24Z</time>
            </trkpt>
            <trkpt lon="101.436492" lat="12.993915">
                <ele>90.981934</ele>
                <time>2011-09-25T04:05:54Z</time>
            </trkpt>
            <trkpt lon="101.436510" lat="12.993331">
                <ele>89.059326</ele>
                <time>2011-09-25T04:06:24Z</time>
            </trkpt>
            <trkpt lon="101.436262" lat="12.992843">
                <ele>87.136597</ele>
                <time>2011-09-25T04:06:54Z</time>
            </trkpt>
            <trkpt lon="101.436466" lat="12.992079">
                <ele>83.291382</ele>
                <time>2011-09-25T04:07:24Z</time>
            </trkpt>
            <trkpt lon="101.435854" lat="12.991557">
                <ele>79.446045</ele>
                <time>2011-09-25T04:07:54Z</time>
            </trkpt>
            <trkpt lon="101.435731" lat="12.991420">
                <ele>79.926636</ele>
                <time>2011-09-25T04:08:24Z</time>
            </trkpt>
            <trkpt lon="101.435524" lat="12.991107">
                <ele>81.368774</ele>
                <time>2011-09-25T04:08:54Z</time>
            </trkpt>
            <trkpt lon="101.435498" lat="12.990800">
                <ele>82.810791</ele>
                <time>2011-09-25T04:09:24Z</time>
            </trkpt>
            <trkpt lon="101.435823" lat="12.990618">
                <ele>84.252685</ele>
                <time>2011-09-25T04:09:54Z</time>
            </trkpt>
            <trkpt lon="101.435808" lat="12.990376">
                <ele>85.694580</ele>
                <time>2011-09-25T04:10:24Z</time>
            </trkpt>
            <trkpt lon="101.435800" lat="12.990077">
                <ele>87.136597</ele>
                <time>2011-09-25T04:10:54Z</time>
            </trkpt>
            <trkpt lon="101.436499" lat="12.989975">
                <ele>88.098022</ele>
                <time>2011-09-25T04:11:24Z</time>
            </trkpt>
            <trkpt lon="101.437141" lat="12.989846">
                <ele>92.904541</ele>
                <time>2011-09-25T04:11:54Z</time>
            </trkpt>
            <trkpt lon="101.437955" lat="12.989649">
                <ele>94.827148</ele>
                <time>2011-09-25T04:12:24Z</time>
            </trkpt>
            <trkpt lon="101.439426" lat="12.988998">
                <ele>89.059326</ele>
                <time>2011-09-25T04:12:54Z</time>
            </trkpt>
            <trkpt lon="101.440291" lat="12.988517">
                <ele>85.213989</ele>
                <time>2011-09-25T04:13:24Z</time>
            </trkpt>
            <trkpt lon="101.441012" lat="12.988208">
                <ele>84.252685</ele>
                <time>2011-09-25T04:13:54Z</time>
            </trkpt>
            <trkpt lon="101.441940" lat="12.987790">
                <ele>84.733398</ele>
                <time>2011-09-25T04:14:24Z</time>
            </trkpt>
            <trkpt lon="101.442666" lat="12.987463">
                <ele>83.291382</ele>
                <time>2011-09-25T04:14:54Z</time>
            </trkpt>
            <trkpt lon="101.443339" lat="12.987020">
                <ele>83.771973</ele>
                <time>2011-09-25T04:15:24Z</time>
            </trkpt>
            <trkpt lon="101.444059" lat="12.986536">
                <ele>85.213989</ele>
                <time>2011-09-25T04:15:54Z</time>
            </trkpt>
            <trkpt lon="101.444100" lat="12.986496">
                <ele>87.136597</ele>
                <time>2011-09-25T04:16:24Z</time>
            </trkpt>
            <trkpt lon="101.444137" lat="12.986510">
                <ele>84.252685</ele>
                <time>2011-09-25T04:16:54Z</time>
            </trkpt>
            <trkpt lon="101.444131" lat="12.986505">
                <ele>79.926636</ele>
                <time>2011-09-25T04:17:24Z</time>
            </trkpt>
            <trkpt lon="101.444126" lat="12.986509">
                <ele>75.600830</ele>
                <time>2011-09-25T04:17:54Z</time>
            </trkpt>
            <trkpt lon="101.444116" lat="12.986495">
                <ele>68.390869</ele>
                <time>2011-09-25T04:18:24Z</time>
            </trkpt>
            <trkpt lon="101.444338" lat="12.986417">
                <ele>73.678223</ele>
                <time>2011-09-25T04:18:54Z</time>
            </trkpt>
            <trkpt lon="101.444608" lat="12.986246">
                <ele>75.600830</ele>
                <time>2011-09-25T04:19:24Z</time>
            </trkpt>
            <trkpt lon="101.444611" lat="12.986238">
                <ele>75.120239</ele>
                <time>2011-09-25T04:19:54Z</time>
            </trkpt>
            <trkpt lon="101.444605" lat="12.986238">
                <ele>76.081421</ele>
                <time>2011-09-25T04:20:24Z</time>
            </trkpt>
            <trkpt lon="101.444602" lat="12.986239">
                <ele>75.600830</ele>
                <time>2011-09-25T04:20:54Z</time>
            </trkpt>
            <trkpt lon="101.444598" lat="12.986227">
                <ele>74.639526</ele>
                <time>2011-09-25T04:21:24Z</time>
            </trkpt>
            <trkpt lon="101.444701" lat="12.986171">
                <ele>77.042847</ele>
                <time>2011-09-25T04:21:54Z</time>
            </trkpt>
            <trkpt lon="101.445149" lat="12.985872">
                <ele>79.446045</ele>
                <time>2011-09-25T04:22:24Z</time>
            </trkpt>
            <trkpt lon="101.445682" lat="12.985527">
                <ele>81.849365</ele>
                <time>2011-09-25T04:22:54Z</time>
            </trkpt>
            <trkpt lon="101.446313" lat="12.985019">
                <ele>80.888184</ele>
                <time>2011-09-25T04:23:24Z</time>
            </trkpt>
            <trkpt lon="101.447095" lat="12.984381">
                <ele>77.523438</ele>
                <time>2011-09-25T04:23:54Z</time>
            </trkpt>
            <trkpt lon="101.448369" lat="12.984709">
                <ele>70.313477</ele>
                <time>2011-09-25T04:24:24Z</time>
            </trkpt>
            <trkpt lon="101.449689" lat="12.984828">
                <ele>65.507080</ele>
                <time>2011-09-25T04:24:54Z</time>
            </trkpt>
            <trkpt lon="101.450686" lat="12.983940">
                <ele>66.948975</ele>
                <time>2011-09-25T04:25:24Z</time>
            </trkpt>
            <trkpt lon="101.451581" lat="12.983429">
                <ele>65.987671</ele>
                <time>2011-09-25T04:25:54Z</time>
            </trkpt>
            <trkpt lon="101.452032" lat="12.982978">
                <ele>62.142334</ele>
                <time>2011-09-25T04:26:24Z</time>
            </trkpt>
            <trkpt lon="101.452682" lat="12.982328">
                <ele>62.622925</ele>
                <time>2011-09-25T04:26:54Z</time>
            </trkpt>
            <trkpt lon="101.453698" lat="12.981490">
                <ele>64.065063</ele>
                <time>2011-09-25T04:27:54Z</time>
            </trkpt>
            <trkpt lon="101.453802" lat="12.981526">
                <ele>65.987671</ele>
                <time>2011-09-25T04:28:24Z</time>
            </trkpt>
            <trkpt lon="101.453974" lat="12.981434">
                <ele>66.468262</ele>
                <time>2011-09-25T04:28:54Z</time>
            </trkpt>
            <trkpt lon="101.454024" lat="12.981481">
                <ele>65.987671</ele>
                <time>2011-09-25T04:29:24Z</time>
            </trkpt>
            <trkpt lon="101.454022" lat="12.981262">
                <ele>66.948975</ele>
                <time>2011-09-25T04:29:54Z</time>
            </trkpt>
            <trkpt lon="101.454672" lat="12.980453">
                <ele>70.313477</ele>
                <time>2011-09-25T04:30:54Z</time>
            </trkpt>
            <trkpt lon="101.455080" lat="12.979966">
                <ele>73.197632</ele>
                <time>2011-09-25T04:31:24Z</time>
            </trkpt>
            <trkpt lon="101.455512" lat="12.979414">
                <ele>72.716919</ele>
                <time>2011-09-25T04:31:54Z</time>
            </trkpt>
            <trkpt lon="101.456225" lat="12.978501">
                <ele>73.678223</ele>
                <time>2011-09-25T04:32:24Z</time>
            </trkpt>
            <trkpt lon="101.457929" lat="12.977440">
                <ele>72.236206</ele>
                <time>2011-09-25T04:33:24Z</time>
            </trkpt>
            <trkpt lon="101.458688" lat="12.976187">
                <ele>67.429688</ele>
                <time>2011-09-25T04:33:54Z</time>
            </trkpt>
            <trkpt lon="101.458763" lat="12.975815">
                <ele>65.987671</ele>
                <time>2011-09-25T04:34:24Z</time>
            </trkpt>
            <trkpt lon="101.459180" lat="12.974859">
                <ele>63.584351</ele>
                <time>2011-09-25T04:34:54Z</time>
            </trkpt>
            <trkpt lon="101.459635" lat="12.974051">
                <ele>61.661743</ele>
                <time>2011-09-25T04:35:24Z</time>
            </trkpt>
            <trkpt lon="101.459954" lat="12.973251">
                <ele>65.507080</ele>
                <time>2011-09-25T04:35:54Z</time>
            </trkpt>
            <trkpt lon="101.460503" lat="12.972247">
                <ele>65.987671</ele>
                <time>2011-09-25T04:36:24Z</time>
            </trkpt>
            <trkpt lon="101.461152" lat="12.971137">
                <ele>66.948975</ele>
                <time>2011-09-25T04:36:54Z</time>
            </trkpt>
            <trkpt lon="101.461744" lat="12.970390">
                <ele>65.987671</ele>
                <time>2011-09-25T04:37:24Z</time>
            </trkpt>
            <trkpt lon="101.461551" lat="12.968704">
                <ele>63.584351</ele>
                <time>2011-09-25T04:37:54Z</time>
            </trkpt>
            <trkpt lon="101.461057" lat="12.967362">
                <ele>60.219727</ele>
                <time>2011-09-25T04:38:24Z</time>
            </trkpt>
            <trkpt lon="101.460086" lat="12.966849">
                <ele>60.700317</ele>
                <time>2011-09-25T04:38:54Z</time>
            </trkpt>
            <trkpt lon="101.459383" lat="12.966224">
                <ele>61.661743</ele>
                <time>2011-09-25T04:39:24Z</time>
            </trkpt>
            <trkpt lon="101.459729" lat="12.965482">
                <ele>62.622925</ele>
                <time>2011-09-25T04:39:54Z</time>
            </trkpt>
            <trkpt lon="101.459811" lat="12.964999">
                <ele>64.065063</ele>
                <time>2011-09-25T04:40:24Z</time>
            </trkpt>
            <trkpt lon="101.460074" lat="12.964694">
                <ele>65.987671</ele>
                <time>2011-09-25T04:40:54Z</time>
            </trkpt>
            <trkpt lon="101.459972" lat="12.964082">
                <ele>68.390869</ele>
                <time>2011-09-25T04:41:24Z</time>
            </trkpt>
            <trkpt lon="101.459912" lat="12.964035">
                <ele>67.910278</ele>
                <time>2011-09-25T04:41:54Z</time>
            </trkpt>
            <trkpt lon="101.460357" lat="12.963907">
                <ele>65.987671</ele>
                <time>2011-09-25T04:42:24Z</time>
            </trkpt>
            <trkpt lon="101.461953" lat="12.963470">
                <ele>69.352295</ele>
                <time>2011-09-25T04:43:24Z</time>
            </trkpt>
            <trkpt lon="101.463482" lat="12.962966">
                <ele>67.429688</ele>
                <time>2011-09-25T04:43:54Z</time>
            </trkpt>
            <trkpt lon="101.466622" lat="12.962688">
                <ele>64.545654</ele>
                <time>2011-09-25T04:44:54Z</time>
            </trkpt>
            <trkpt lon="101.467580" lat="12.962188">
                <ele>64.065063</ele>
                <time>2011-09-25T04:45:24Z</time>
            </trkpt>
            <trkpt lon="101.468680" lat="12.962592">
                <ele>63.103638</ele>
                <time>2011-09-25T04:45:54Z</time>
            </trkpt>
            <trkpt lon="101.468626" lat="12.962919">
                <ele>64.545654</ele>
                <time>2011-09-25T04:46:24Z</time>
            </trkpt>
            <trkpt lon="101.468627" lat="12.962954">
                <ele>64.545654</ele>
                <time>2011-09-25T04:46:54Z</time>
            </trkpt>
            <trkpt lon="101.468622" lat="12.962968">
                <ele>66.468262</ele>
                <time>2011-09-25T04:47:24Z</time>
            </trkpt>
            <trkpt lon="101.468617" lat="12.962975">
                <ele>65.987671</ele>
                <time>2011-09-25T04:47:54Z</time>
            </trkpt>
            <trkpt lon="101.468611" lat="12.962974">
                <ele>67.910278</ele>
                <time>2011-09-25T04:48:24Z</time>
            </trkpt>
            <trkpt lon="101.468607" lat="12.962973">
                <ele>70.313477</ele>
                <time>2011-09-25T04:48:54Z</time>
            </trkpt>
            <trkpt lon="101.468606" lat="12.962975">
                <ele>66.468262</ele>
                <time>2011-09-25T04:49:24Z</time>
            </trkpt>
            <trkpt lon="101.468607" lat="12.962976">
                <ele>66.468262</ele>
                <time>2011-09-25T04:49:54Z</time>
            </trkpt>
            <trkpt lon="101.468607" lat="12.962980">
                <ele>70.794190</ele>
                <time>2011-09-25T04:50:24Z</time>
            </trkpt>
            <trkpt lon="101.468608" lat="12.962982">
                <ele>73.678223</ele>
                <time>2011-09-25T04:50:54Z</time>
            </trkpt>
            <trkpt lon="101.468609" lat="12.962984">
                <ele>69.832886</ele>
                <time>2011-09-25T04:51:24Z</time>
            </trkpt>
            <trkpt lon="101.468610" lat="12.962986">
                <ele>68.390869</ele>
                <time>2011-09-25T04:51:54Z</time>
            </trkpt>
            <trkpt lon="101.468610" lat="12.962989">
                <ele>61.661743</ele>
                <time>2011-09-25T04:52:24Z</time>
            </trkpt>
            <trkpt lon="101.468610" lat="12.962992">
                <ele>63.584351</ele>
                <time>2011-09-25T04:52:54Z</time>
            </trkpt>
            <trkpt lon="101.468609" lat="12.962995">
                <ele>57.335815</ele>
                <time>2011-09-25T04:53:24Z</time>
            </trkpt>
            <trkpt lon="101.468609" lat="12.962998">
                <ele>59.258423</ele>
                <time>2011-09-25T04:53:54Z</time>
            </trkpt>
            <trkpt lon="101.468609" lat="12.963000">
                <ele>62.142334</ele>
                <time>2011-09-25T04:54:24Z</time>
            </trkpt>
            <trkpt lon="101.468608" lat="12.963001">
                <ele>59.258423</ele>
                <time>2011-09-25T04:54:54Z</time>
            </trkpt>
            <trkpt lon="101.468607" lat="12.963003">
                <ele>63.103638</ele>
                <time>2011-09-25T04:55:24Z</time>
            </trkpt>
            <trkpt lon="101.468607" lat="12.963004">
                <ele>65.987671</ele>
                <time>2011-09-25T04:55:54Z</time>
            </trkpt>
            <trkpt lon="101.468606" lat="12.963005">
                <ele>61.181030</ele>
                <time>2011-09-25T04:56:24Z</time>
            </trkpt>
            <trkpt lon="101.468606" lat="12.963006">
                <ele>58.777710</ele>
                <time>2011-09-25T04:56:54Z</time>
            </trkpt>
            <trkpt lon="101.468618" lat="12.963009">
                <ele>62.622925</ele>
                <time>2011-09-25T04:57:24Z</time>
            </trkpt>
            <trkpt lon="101.468466" lat="12.963392">
                <ele>68.390869</ele>
                <time>2011-09-25T04:57:54Z</time>
            </trkpt>
            <trkpt lon="101.468118" lat="12.964775">
                <ele>64.065063</ele>
                <time>2011-09-25T04:58:24Z</time>
            </trkpt>
            <trkpt lon="101.467845" lat="12.966562">
                <ele>57.335815</ele>
                <time>2011-09-25T04:58:54Z</time>
            </trkpt>
            <trkpt lon="101.467141" lat="12.967632">
                <ele>58.297119</ele>
                <time>2011-09-25T04:59:24Z</time>
            </trkpt>
            <trkpt lon="101.468362" lat="12.967736">
                <ele>55.893799</ele>
                <time>2011-09-25T04:59:54Z</time>
            </trkpt>
            <trkpt lon="101.469547" lat="12.968814">
                <ele>54.932373</ele>
                <time>2011-09-25T05:00:54Z</time>
            </trkpt>
            <trkpt lon="101.469644" lat="12.969575">
                <ele>59.739136</ele>
                <time>2011-09-25T05:01:24Z</time>
            </trkpt>
            <trkpt lon="101.470777" lat="12.970197">
                <ele>58.297119</ele>
                <time>2011-09-25T05:01:54Z</time>
            </trkpt>
            <trkpt lon="101.472206" lat="12.970942">
                <ele>57.335815</ele>
                <time>2011-09-25T05:02:24Z</time>
            </trkpt>
            <trkpt lon="101.473709" lat="12.971615">
                <ele>54.932373</ele>
                <time>2011-09-25T05:02:54Z</time>
            </trkpt>
            <trkpt lon="101.475258" lat="12.972266">
                <ele>53.009766</ele>
                <time>2011-09-25T05:03:24Z</time>
            </trkpt>
            <trkpt lon="101.476753" lat="12.972785">
                <ele>49.645264</ele>
                <time>2011-09-25T05:03:54Z</time>
            </trkpt>
            <trkpt lon="101.478372" lat="12.973018">
                <ele>44.838623</ele>
                <time>2011-09-25T05:04:24Z</time>
            </trkpt>
            <trkpt lon="101.479720" lat="12.973692">
                <ele>44.838623</ele>
                <time>2011-09-25T05:04:54Z</time>
            </trkpt>
            <trkpt lon="101.479497" lat="12.974782">
                <ele>47.241821</ele>
                <time>2011-09-25T05:05:24Z</time>
            </trkpt>
            <trkpt lon="101.478439" lat="12.975766">
                <ele>47.722534</ele>
                <time>2011-09-25T05:05:54Z</time>
            </trkpt>
            <trkpt lon="101.477701" lat="12.978114">
                <ele>50.606567</ele>
                <time>2011-09-25T05:06:54Z</time>
            </trkpt>
            <trkpt lon="101.477267" lat="12.979675">
                <ele>50.125977</ele>
                <time>2011-09-25T05:07:24Z</time>
            </trkpt>
            <trkpt lon="101.475958" lat="12.980790">
                <ele>45.319214</ele>
                <time>2011-09-25T05:07:54Z</time>
            </trkpt>
            <trkpt lon="101.474553" lat="12.981655">
                <ele>45.799927</ele>
                <time>2011-09-25T05:08:24Z</time>
            </trkpt>
            <trkpt lon="101.473200" lat="12.982680">
                <ele>43.877319</ele>
                <time>2011-09-25T05:08:54Z</time>
            </trkpt>
            <trkpt lon="101.472165" lat="12.985131">
                <ele>40.993408</ele>
                <time>2011-09-25T05:09:54Z</time>
            </trkpt>
            <trkpt lon="101.471585" lat="12.986622">
                <ele>41.954712</ele>
                <time>2011-09-25T05:10:24Z</time>
            </trkpt>
            <trkpt lon="101.470177" lat="12.990090">
                <ele>41.473999</ele>
                <time>2011-09-25T05:11:24Z</time>
            </trkpt>
            <trkpt lon="101.469999" lat="12.991679">
                <ele>43.396606</ele>
                <time>2011-09-25T05:11:54Z</time>
            </trkpt>
            <trkpt lon="101.469780" lat="12.994676">
                <ele>42.435425</ele>
                <time>2011-09-25T05:12:54Z</time>
            </trkpt>
            <trkpt lon="101.469804" lat="12.996275">
                <ele>43.877319</ele>
                <time>2011-09-25T05:13:24Z</time>
            </trkpt>
            <trkpt lon="101.469715" lat="12.997985">
                <ele>41.954712</ele>
                <time>2011-09-25T05:13:54Z</time>
            </trkpt>
            <trkpt lon="101.469177" lat="12.999359">
                <ele>42.435425</ele>
                <time>2011-09-25T05:14:24Z</time>
            </trkpt>
            <trkpt lon="101.465282" lat="12.998906">
                <ele>44.838623</ele>
                <time>2011-09-25T05:15:54Z</time>
            </trkpt>
            <trkpt lon="101.462369" lat="12.998492">
                <ele>48.683960</ele>
                <time>2011-09-25T05:16:54Z</time>
            </trkpt>
            <trkpt lon="101.460825" lat="12.998295">
                <ele>51.567871</ele>
                <time>2011-09-25T05:17:24Z</time>
            </trkpt>
            <trkpt lon="101.457844" lat="12.997498">
                <ele>53.009766</ele>
                <time>2011-09-25T05:18:24Z</time>
            </trkpt>
            <trkpt lon="101.456121" lat="12.997210">
                <ele>53.971191</ele>
                <time>2011-09-25T05:19:24Z</time>
            </trkpt>
            <trkpt lon="101.456058" lat="12.997836">
                <ele>53.971191</ele>
                <time>2011-09-25T05:19:54Z</time>
            </trkpt>
            <trkpt lon="101.455961" lat="12.998492">
                <ele>49.645264</ele>
                <time>2011-09-25T05:20:24Z</time>
            </trkpt>
            <trkpt lon="101.455956" lat="12.998496">
                <ele>45.319214</ele>
                <time>2011-09-25T05:20:54Z</time>
            </trkpt>
            <trkpt lon="101.455943" lat="12.998502">
                <ele>45.799927</ele>
                <time>2011-09-25T05:21:24Z</time>
            </trkpt>
            <trkpt lon="101.455955" lat="12.998480">
                <ele>48.683960</ele>
                <time>2011-09-25T05:21:54Z</time>
            </trkpt>
            <trkpt lon="101.455948" lat="12.998466">
                <ele>51.087158</ele>
                <time>2011-09-25T05:22:24Z</time>
            </trkpt>
            <trkpt lon="101.455933" lat="12.998459">
                <ele>51.567871</ele>
                <time>2011-09-25T05:22:54Z</time>
            </trkpt>
            <trkpt lon="101.455933" lat="12.998460">
                <ele>51.567871</ele>
                <time>2011-09-25T05:23:24Z</time>
            </trkpt>
            <trkpt lon="101.455947" lat="12.998474">
                <ele>51.567871</ele>
                <time>2011-09-25T05:23:54Z</time>
            </trkpt>
            <trkpt lon="101.455957" lat="12.998470">
                <ele>50.606567</ele>
                <time>2011-09-25T05:24:24Z</time>
            </trkpt>
            <trkpt lon="101.455963" lat="12.998466">
                <ele>52.048584</ele>
                <time>2011-09-25T05:24:54Z</time>
            </trkpt>
            <trkpt lon="101.455965" lat="12.998460">
                <ele>61.661743</ele>
                <time>2011-09-25T05:25:24Z</time>
            </trkpt>
            <trkpt lon="101.455966" lat="12.998455">
                <ele>60.700317</ele>
                <time>2011-09-25T05:25:54Z</time>
            </trkpt>
            <trkpt lon="101.455981" lat="12.998449">
                <ele>60.700317</ele>
                <time>2011-09-25T05:26:24Z</time>
            </trkpt>
            <trkpt lon="101.455967" lat="12.998465">
                <ele>56.374512</ele>
                <time>2011-09-25T05:26:54Z</time>
            </trkpt>
            <trkpt lon="101.455774" lat="12.998306">
                <ele>55.413086</ele>
                <time>2011-09-25T05:27:24Z</time>
            </trkpt>
            <trkpt lon="101.455578" lat="12.998015">
                <ele>55.413086</ele>
                <time>2011-09-25T05:27:54Z</time>
            </trkpt>
            <trkpt lon="101.454908" lat="12.997735">
                <ele>55.413086</ele>
                <time>2011-09-25T05:28:24Z</time>
            </trkpt>
            <trkpt lon="101.454571" lat="12.998335">
                <ele>53.971191</ele>
                <time>2011-09-25T05:28:54Z</time>
            </trkpt>
            <trkpt lon="101.454551" lat="12.998365">
                <ele>53.490479</ele>
                <time>2011-09-25T05:29:24Z</time>
            </trkpt>
            <trkpt lon="101.454484" lat="12.999036">
                <ele>55.413086</ele>
                <time>2011-09-25T05:29:54Z</time>
            </trkpt>
            <trkpt lon="101.454215" lat="12.999407">
                <ele>59.739136</ele>
                <time>2011-09-25T05:30:24Z</time>
            </trkpt>
            <trkpt lon="101.453926" lat="12.999428">
                <ele>56.855103</ele>
                <time>2011-09-25T05:30:54Z</time>
            </trkpt>
            <trkpt lon="101.454123" lat="12.999394">
                <ele>55.413086</ele>
                <time>2011-09-25T05:31:24Z</time>
            </trkpt>
            <trkpt lon="101.453886" lat="12.999816">
                <ele>57.335815</ele>
                <time>2011-09-25T05:31:54Z</time>
            </trkpt>
            <trkpt lon="101.453540" lat="13.000051">
                <ele>55.413086</ele>
                <time>2011-09-25T05:32:24Z</time>
            </trkpt>
            <trkpt lon="101.453129" lat="13.000170">
                <ele>58.297119</ele>
                <time>2011-09-25T05:32:54Z</time>
            </trkpt>
            <trkpt lon="101.452348" lat="13.000345">
                <ele>59.258423</ele>
                <time>2011-09-25T05:33:24Z</time>
            </trkpt>
            <trkpt lon="101.451538" lat="13.000513">
                <ele>60.219727</ele>
                <time>2011-09-25T05:33:54Z</time>
            </trkpt>
            <trkpt lon="101.451633" lat="13.001864">
                <ele>54.451782</ele>
                <time>2011-09-25T05:34:24Z</time>
            </trkpt>
            <trkpt lon="101.446650" lat="13.002422">
                <ele>57.816528</ele>
                <time>2011-09-25T05:36:54Z</time>
            </trkpt>
            <trkpt lon="101.445702" lat="13.002396">
                <ele>59.739136</ele>
                <time>2011-09-25T05:37:24Z</time>
            </trkpt>
            <trkpt lon="101.444855" lat="13.002214">
                <ele>64.545654</ele>
                <time>2011-09-25T05:37:54Z</time>
            </trkpt>
            <trkpt lon="101.443896" lat="13.002186">
                <ele>65.026367</ele>
                <time>2011-09-25T05:38:24Z</time>
            </trkpt>
            <trkpt lon="101.443515" lat="13.002794">
                <ele>65.987671</ele>
                <time>2011-09-25T05:38:54Z</time>
            </trkpt>
            <trkpt lon="101.442800" lat="13.005828">
                <ele>54.932373</ele>
                <time>2011-09-25T05:40:24Z</time>
            </trkpt>
            <trkpt lon="101.442681" lat="13.006203">
                <ele>53.490479</ele>
                <time>2011-09-25T05:40:54Z</time>
            </trkpt>
            <trkpt lon="101.442612" lat="13.006426">
                <ele>55.413086</ele>
                <time>2011-09-25T05:41:24Z</time>
            </trkpt>
            <trkpt lon="101.442176" lat="13.006509">
                <ele>63.103638</ele>
                <time>2011-09-25T05:41:54Z</time>
            </trkpt>
            <trkpt lon="101.441494" lat="13.006836">
                <ele>61.661743</ele>
                <time>2011-09-25T05:42:24Z</time>
            </trkpt>
            <trkpt lon="101.441076" lat="13.007244">
                <ele>61.661743</ele>
                <time>2011-09-25T05:42:54Z</time>
            </trkpt>
            <trkpt lon="101.441301" lat="13.008420">
                <ele>60.700317</ele>
                <time>2011-09-25T05:43:24Z</time>
            </trkpt>
            <trkpt lon="101.441114" lat="13.009294">
                <ele>57.816528</ele>
                <time>2011-09-25T05:43:54Z</time>
            </trkpt>
            <trkpt lon="101.439753" lat="13.008825">
                <ele>52.529175</ele>
                <time>2011-09-25T05:44:24Z</time>
            </trkpt>
            <trkpt lon="101.438275" lat="13.008610">
                <ele>54.451782</ele>
                <time>2011-09-25T05:44:54Z</time>
            </trkpt>
            <trkpt lon="101.437276" lat="13.008832">
                <ele>56.374512</ele>
                <time>2011-09-25T05:45:24Z</time>
            </trkpt>
            <trkpt lon="101.436721" lat="13.010214">
                <ele>58.297119</ele>
                <time>2011-09-25T05:45:54Z</time>
            </trkpt>
            <trkpt lon="101.436021" lat="13.011879">
                <ele>53.971191</ele>
                <time>2011-09-25T05:46:24Z</time>
            </trkpt>
            <trkpt lon="101.434907" lat="13.012693">
                <ele>56.374512</ele>
                <time>2011-09-25T05:46:54Z</time>
            </trkpt>
            <trkpt lon="101.435225" lat="13.014933">
                <ele>59.258423</ele>
                <time>2011-09-25T05:47:54Z</time>
            </trkpt>
            <trkpt lon="101.434313" lat="13.015167">
                <ele>67.429688</ele>
                <time>2011-09-25T05:48:24Z</time>
            </trkpt>
            <trkpt lon="101.433585" lat="13.015354">
                <ele>71.755493</ele>
                <time>2011-09-25T05:48:54Z</time>
            </trkpt>
            <trkpt lon="101.436424" lat="13.018502">
                <ele>65.507080</ele>
                <time>2011-09-25T05:50:24Z</time>
            </trkpt>
            <trkpt lon="101.436732" lat="13.019181">
                <ele>62.142334</ele>
                <time>2011-09-25T05:50:54Z</time>
            </trkpt>
            <trkpt lon="101.435413" lat="13.019519">
                <ele>64.065063</ele>
                <time>2011-09-25T05:51:24Z</time>
            </trkpt>
            <trkpt lon="101.434234" lat="13.020147">
                <ele>66.948975</ele>
                <time>2011-09-25T05:51:54Z</time>
            </trkpt>
            <trkpt lon="101.432927" lat="13.021002">
                <ele>65.026367</ele>
                <time>2011-09-25T05:52:24Z</time>
            </trkpt>
            <trkpt lon="101.431808" lat="13.021843">
                <ele>65.987671</ele>
                <time>2011-09-25T05:52:54Z</time>
            </trkpt>
            <trkpt lon="101.430581" lat="13.022971">
                <ele>67.429688</ele>
                <time>2011-09-25T05:53:24Z</time>
            </trkpt>
            <trkpt lon="101.429834" lat="13.024176">
                <ele>66.468262</ele>
                <time>2011-09-25T05:53:54Z</time>
            </trkpt>
            <trkpt lon="101.429450" lat="13.025130">
                <ele>68.871582</ele>
                <time>2011-09-25T05:54:24Z</time>
            </trkpt>
            <trkpt lon="101.428317" lat="13.026202">
                <ele>62.622925</ele>
                <time>2011-09-25T05:54:54Z</time>
            </trkpt>
            <trkpt lon="101.427096" lat="13.026446">
                <ele>65.507080</ele>
                <time>2011-09-25T05:55:24Z</time>
            </trkpt>
            <trkpt lon="101.425791" lat="13.026280">
                <ele>71.274902</ele>
                <time>2011-09-25T05:55:54Z</time>
            </trkpt>
            <trkpt lon="101.424868" lat="13.025950">
                <ele>75.120239</ele>
                <time>2011-09-25T05:56:24Z</time>
            </trkpt>
            <trkpt lon="101.424740" lat="13.024964">
                <ele>77.523438</ele>
                <time>2011-09-25T05:56:54Z</time>
            </trkpt>
            <trkpt lon="101.424920" lat="13.023817">
                <ele>84.252685</ele>
                <time>2011-09-25T05:57:24Z</time>
            </trkpt>
        </trkseg>
    </trk>
</gpx>